sensor_id;sensor_type;location;lat;lon;timestamp;temperature;humidity
10468;DHT22;5281;48.878;9.394;2022-08-16T00:00:24;18.80;99.90
10468;DHT22;5281;48.878;9.394;2022-08-16T00:02:52;18.90;99.90
10468;DHT22;5281;48.878;9.394;2022-08-16T00:05:20;18.90;99.90
10468;DHT22;5281;48.878;9.394;2022-08-16T00:07:48;19.00;99.90
10468;DHT22;5281;48.878;9.394;2022-08-16T00:10:16;19.00;99.90
10468;DHT22;5281;48.878;9.394;2022-08-16T00:12:45;19.20;99.90
10468;DHT22;5281;48.878;9.394;2022-08-16T00:15:15;19.30;99.90
10468;DHT22;5281;48.878;9.394;2022-08-16T00:17:43;19.40;99.90
10468;DHT22;5281;48.878;9.394;2022-08-16T00:20:11;19.40;99.90
10468;DHT22;5281;48.878;9.394;2022-08-16T00:22:40;19.40;99.90
10468;DHT22;5281;48.878;9.394;2022-08-16T00:25:10;19.60;99.90
10468;DHT22;5281;48.878;9.394;2022-08-16T00:27:37;19.60;99.90
10468;DHT22;5281;48.878;9.394;2022-08-16T00:30:08;19.60;99.90
10468;DHT22;5281;48.878;9.394;2022-08-16T00:32:36;19.60;99.90
10468;DHT22;5281;48.878;9.394;2022-08-16T00:35:05;19.50;99.90
10468;DHT22;5281;48.878;9.394;2022-08-16T00:37:32;19.50;99.90
10468;DHT22;5281;48.878;9.394;2022-08-16T00:39:59;19.40;99.90
10468;DHT22;5281;48.878;9.394;2022-08-16T00:42:28;19.40;99.90
10468;DHT22;5281;48.878;9.394;2022-08-16T00:45:00;19.30;99.90
10468;DHT22;5281;48.878;9.394;2022-08-16T00:47:28;19.20;99.90
10468;DHT22;5281;48.878;9.394;2022-08-16T00:49:55;19.10;99.90
10468;DHT22;5281;48.878;9.394;2022-08-16T00:52:22;19.20;99.90
10468;DHT22;5281;48.878;9.394;2022-08-16T00:54:48;19.10;99.90
10468;DHT22;5281;48.878;9.394;2022-08-16T00:57:15;19.10;99.90
10468;DHT22;5281;48.878;9.394;2022-08-16T00:59:42;19.10;99.90
10468;DHT22;5281;48.878;9.394;2022-08-16T01:02:09;19.00;99.90
10468;DHT22;5281;48.878;9.394;2022-08-16T01:04:39;18.90;99.90
10468;DHT22;5281;48.878;9.394;2022-08-16T01:07:06;18.80;99.90
10468;DHT22;5281;48.878;9.394;2022-08-16T01:09:36;18.80;99.90
10468;DHT22;5281;48.878;9.394;2022-08-16T01:12:06;18.80;99.90
10468;DHT22;5281;48.878;9.394;2022-08-16T01:14:39;18.70;99.90
10468;DHT22;5281;48.878;9.394;2022-08-16T01:17:07;18.70;99.90
10468;DHT22;5281;48.878;9.394;2022-08-16T01:19:39;18.70;99.90
10468;DHT22;5281;48.878;9.394;2022-08-16T01:22:12;18.70;99.90
10468;DHT22;5281;48.878;9.394;2022-08-16T01:24:45;18.80;99.90
10468;DHT22;5281;48.878;9.394;2022-08-16T01:27:16;18.80;99.90
10468;DHT22;5281;48.878;9.394;2022-08-16T01:29:50;18.90;99.90
10468;DHT22;5281;48.878;9.394;2022-08-16T01:32:18;18.90;99.90
10468;DHT22;5281;48.878;9.394;2022-08-16T01:34:45;18.90;99.90
10468;DHT22;5281;48.878;9.394;2022-08-16T01:37:12;18.90;99.90
10468;DHT22;5281;48.878;9.394;2022-08-16T01:39:40;18.90;99.90
10468;DHT22;5281;48.878;9.394;2022-08-16T01:42:10;18.90;99.90
10468;DHT22;5281;48.878;9.394;2022-08-16T01:44:38;19.00;99.90
10468;DHT22;5281;48.878;9.394;2022-08-16T01:47:05;19.00;99.90
10468;DHT22;5281;48.878;9.394;2022-08-16T01:49:35;18.90;99.90
10468;DHT22;5281;48.878;9.394;2022-08-16T01:52:05;18.90;99.90
10468;DHT22;5281;48.878;9.394;2022-08-16T01:54:33;18.90;99.90
10468;DHT22;5281;48.878;9.394;2022-08-16T01:57:01;18.90;99.90
10468;DHT22;5281;48.878;9.394;2022-08-16T01:59:30;18.80;99.90
10468;DHT22;5281;48.878;9.394;2022-08-16T02:01:57;18.80;99.90
10468;DHT22;5281;48.878;9.394;2022-08-16T02:04:25;18.70;99.90
10468;DHT22;5281;48.878;9.394;2022-08-16T02:06:52;18.70;99.90
10468;DHT22;5281;48.878;9.394;2022-08-16T02:09:20;18.60;99.90
10468;DHT22;5281;48.878;9.394;2022-08-16T02:11:50;18.60;99.90
10468;DHT22;5281;48.878;9.394;2022-08-16T02:14:18;18.60;99.90
10468;DHT22;5281;48.878;9.394;2022-08-16T02:16:46;18.50;99.90
10468;DHT22;5281;48.878;9.394;2022-08-16T02:19:13;18.50;99.90
10468;DHT22;5281;48.878;9.394;2022-08-16T02:21:43;18.40;99.90
10468;DHT22;5281;48.878;9.394;2022-08-16T02:24:10;18.40;99.90
10468;DHT22;5281;48.878;9.394;2022-08-16T02:26:37;18.40;99.90
10468;DHT22;5281;48.878;9.394;2022-08-16T02:29:04;18.40;99.90
10468;DHT22;5281;48.878;9.394;2022-08-16T02:31:31;18.30;99.90
10468;DHT22;5281;48.878;9.394;2022-08-16T02:33:59;18.30;99.90
10468;DHT22;5281;48.878;9.394;2022-08-16T02:36:26;18.30;99.90
10468;DHT22;5281;48.878;9.394;2022-08-16T02:38:53;18.30;99.90
10468;DHT22;5281;48.878;9.394;2022-08-16T02:41:20;18.30;99.90
10468;DHT22;5281;48.878;9.394;2022-08-16T02:43:47;18.20;99.90
10468;DHT22;5281;48.878;9.394;2022-08-16T02:46:14;18.20;99.90
10468;DHT22;5281;48.878;9.394;2022-08-16T02:48:41;18.20;99.90
10468;DHT22;5281;48.878;9.394;2022-08-16T02:51:10;18.10;99.90
10468;DHT22;5281;48.878;9.394;2022-08-16T02:53:38;18.10;99.90
10468;DHT22;5281;48.878;9.394;2022-08-16T02:56:08;18.20;99.90
10468;DHT22;5281;48.878;9.394;2022-08-16T02:58:35;18.30;99.90
10468;DHT22;5281;48.878;9.394;2022-08-16T03:01:03;18.30;99.90
10468;DHT22;5281;48.878;9.394;2022-08-16T03:03:31;18.40;99.90
10468;DHT22;5281;48.878;9.394;2022-08-16T03:05:59;18.40;99.90
10468;DHT22;5281;48.878;9.394;2022-08-16T03:08:27;18.40;99.90
10468;DHT22;5281;48.878;9.394;2022-08-16T03:10:54;18.40;99.90
10468;DHT22;5281;48.878;9.394;2022-08-16T03:13:22;18.30;99.90
10468;DHT22;5281;48.878;9.394;2022-08-16T03:15:49;18.20;99.90
10468;DHT22;5281;48.878;9.394;2022-08-16T03:18:16;18.20;99.90
10468;DHT22;5281;48.878;9.394;2022-08-16T03:20:43;18.30;99.90
10468;DHT22;5281;48.878;9.394;2022-08-16T03:23:10;18.40;99.90
10468;DHT22;5281;48.878;9.394;2022-08-16T03:25:39;18.40;99.90
10468;DHT22;5281;48.878;9.394;2022-08-16T03:28:07;18.40;99.90
10468;DHT22;5281;48.878;9.394;2022-08-16T03:30:34;18.40;99.90
10468;DHT22;5281;48.878;9.394;2022-08-16T03:33:02;18.40;99.90
10468;DHT22;5281;48.878;9.394;2022-08-16T03:35:31;18.40;99.90
10468;DHT22;5281;48.878;9.394;2022-08-16T03:38:00;18.40;99.90
10468;DHT22;5281;48.878;9.394;2022-08-16T03:40:27;18.30;99.90
10468;DHT22;5281;48.878;9.394;2022-08-16T03:42:55;18.30;99.90
10468;DHT22;5281;48.878;9.394;2022-08-16T03:45:22;18.20;99.90
10468;DHT22;5281;48.878;9.394;2022-08-16T03:47:50;18.10;99.90
10468;DHT22;5281;48.878;9.394;2022-08-16T03:50:17;18.10;99.90
10468;DHT22;5281;48.878;9.394;2022-08-16T03:52:44;18.00;99.90
10468;DHT22;5281;48.878;9.394;2022-08-16T03:55:11;17.90;99.90
10468;DHT22;5281;48.878;9.394;2022-08-16T03:57:38;17.80;99.90
10468;DHT22;5281;48.878;9.394;2022-08-16T04:00:11;17.80;99.90
10468;DHT22;5281;48.878;9.394;2022-08-16T04:02:39;17.80;99.90
10468;DHT22;5281;48.878;9.394;2022-08-16T04:05:07;17.70;99.90
10468;DHT22;5281;48.878;9.394;2022-08-16T04:07:34;17.70;99.90
10468;DHT22;5281;48.878;9.394;2022-08-16T04:10:05;17.60;99.90
10468;DHT22;5281;48.878;9.394;2022-08-16T04:12:33;17.50;99.90
10468;DHT22;5281;48.878;9.394;2022-08-16T04:15:00;17.40;99.90
10468;DHT22;5281;48.878;9.394;2022-08-16T04:17:29;17.40;99.90
10468;DHT22;5281;48.878;9.394;2022-08-16T04:19:57;17.30;99.90
10468;DHT22;5281;48.878;9.394;2022-08-16T04:22:24;17.30;99.90
10468;DHT22;5281;48.878;9.394;2022-08-16T04:24:51;17.30;99.90
10468;DHT22;5281;48.878;9.394;2022-08-16T04:27:18;17.30;99.90
10468;DHT22;5281;48.878;9.394;2022-08-16T04:29:45;17.20;99.90
10468;DHT22;5281;48.878;9.394;2022-08-16T04:32:12;17.20;99.90
10468;DHT22;5281;48.878;9.394;2022-08-16T04:34:40;17.30;99.90
10468;DHT22;5281;48.878;9.394;2022-08-16T04:37:07;17.40;99.90
10468;DHT22;5281;48.878;9.394;2022-08-16T04:39:35;17.50;99.90
10468;DHT22;5281;48.878;9.394;2022-08-16T04:42:03;17.40;99.90
10468;DHT22;5281;48.878;9.394;2022-08-16T04:44:30;17.50;99.90
10468;DHT22;5281;48.878;9.394;2022-08-16T04:46:57;17.50;99.90
10468;DHT22;5281;48.878;9.394;2022-08-16T04:49:25;17.60;99.90
10468;DHT22;5281;48.878;9.394;2022-08-16T04:51:53;17.60;99.90
10468;DHT22;5281;48.878;9.394;2022-08-16T04:54:20;17.60;99.90
10468;DHT22;5281;48.878;9.394;2022-08-16T04:56:47;17.70;99.90
10468;DHT22;5281;48.878;9.394;2022-08-16T04:59:14;18.00;99.90
10468;DHT22;5281;48.878;9.394;2022-08-16T05:01:40;18.30;99.90
10468;DHT22;5281;48.878;9.394;2022-08-16T05:04:07;18.50;99.90
10468;DHT22;5281;48.878;9.394;2022-08-16T05:06:34;18.60;99.90
10468;DHT22;5281;48.878;9.394;2022-08-16T05:09:03;18.80;99.90
10468;DHT22;5281;48.878;9.394;2022-08-16T05:11:30;18.90;99.90
10468;DHT22;5281;48.878;9.394;2022-08-16T05:13:57;19.20;99.90
10468;DHT22;5281;48.878;9.394;2022-08-16T05:16:28;19.50;99.90
10468;DHT22;5281;48.878;9.394;2022-08-16T05:18:57;19.80;99.90
10468;DHT22;5281;48.878;9.394;2022-08-16T05:21:25;20.10;99.90
10468;DHT22;5281;48.878;9.394;2022-08-16T05:23:53;20.20;99.90
10468;DHT22;5281;48.878;9.394;2022-08-16T05:26:22;20.20;99.90
10468;DHT22;5281;48.878;9.394;2022-08-16T05:28:50;20.20;99.90
10468;DHT22;5281;48.878;9.394;2022-08-16T05:31:17;20.40;99.90
10468;DHT22;5281;48.878;9.394;2022-08-16T05:33:43;20.60;99.90
10468;DHT22;5281;48.878;9.394;2022-08-16T05:36:10;20.80;99.90
10468;DHT22;5281;48.878;9.394;2022-08-16T05:38:37;20.80;99.90
10468;DHT22;5281;48.878;9.394;2022-08-16T05:41:04;20.90;99.90
10468;DHT22;5281;48.878;9.394;2022-08-16T05:43:32;20.90;99.90
10468;DHT22;5281;48.878;9.394;2022-08-16T05:45:59;20.90;99.90
10468;DHT22;5281;48.878;9.394;2022-08-16T05:48:26;20.70;99.90
10468;DHT22;5281;48.878;9.394;2022-08-16T05:50:53;20.70;99.90
10468;DHT22;5281;48.878;9.394;2022-08-16T05:53:21;20.70;99.90
10468;DHT22;5281;48.878;9.394;2022-08-16T05:55:48;20.80;99.90
10468;DHT22;5281;48.878;9.394;2022-08-16T05:58:15;20.90;99.90
10468;DHT22;5281;48.878;9.394;2022-08-16T06:00:43;21.00;99.90
10468;DHT22;5281;48.878;9.394;2022-08-16T06:03:10;21.00;99.90
10468;DHT22;5281;48.878;9.394;2022-08-16T06:05:37;21.10;99.90
10468;DHT22;5281;48.878;9.394;2022-08-16T06:08:04;21.20;99.90
10468;DHT22;5281;48.878;9.394;2022-08-16T06:10:31;21.20;99.90
10468;DHT22;5281;48.878;9.394;2022-08-16T06:12:58;21.40;99.90
10468;DHT22;5281;48.878;9.394;2022-08-16T06:15:25;21.40;99.90
10468;DHT22;5281;48.878;9.394;2022-08-16T06:17:53;21.50;99.90
10468;DHT22;5281;48.878;9.394;2022-08-16T06:20:22;21.40;99.90
10468;DHT22;5281;48.878;9.394;2022-08-16T06:22:49;21.40;99.90
10468;DHT22;5281;48.878;9.394;2022-08-16T06:25:16;21.60;99.90
10468;DHT22;5281;48.878;9.394;2022-08-16T06:27:43;21.60;99.90
10468;DHT22;5281;48.878;9.394;2022-08-16T06:30:10;21.70;99.90
10468;DHT22;5281;48.878;9.394;2022-08-16T06:32:38;21.80;99.90
10468;DHT22;5281;48.878;9.394;2022-08-16T06:35:08;22.00;99.90
10468;DHT22;5281;48.878;9.394;2022-08-16T06:37:36;22.30;99.90
10468;DHT22;5281;48.878;9.394;2022-08-16T06:40:05;22.50;99.90
10468;DHT22;5281;48.878;9.394;2022-08-16T06:42:33;22.60;99.90
10468;DHT22;5281;48.878;9.394;2022-08-16T06:44:59;22.70;99.90
10468;DHT22;5281;48.878;9.394;2022-08-16T06:47:27;22.90;99.90
10468;DHT22;5281;48.878;9.394;2022-08-16T06:49:54;23.00;99.90
10468;DHT22;5281;48.878;9.394;2022-08-16T06:52:22;23.10;99.90
10468;DHT22;5281;48.878;9.394;2022-08-16T06:54:49;23.30;99.90
10468;DHT22;5281;48.878;9.394;2022-08-16T06:57:16;23.50;99.90
10468;DHT22;5281;48.878;9.394;2022-08-16T06:59:44;23.60;99.90
10468;DHT22;5281;48.878;9.394;2022-08-16T07:02:11;23.70;99.90
10468;DHT22;5281;48.878;9.394;2022-08-16T07:04:38;23.80;99.90
10468;DHT22;5281;48.878;9.394;2022-08-16T07:07:07;23.80;99.90
10468;DHT22;5281;48.878;9.394;2022-08-16T07:09:35;23.90;99.90
10468;DHT22;5281;48.878;9.394;2022-08-16T07:12:03;23.80;99.90
10468;DHT22;5281;48.878;9.394;2022-08-16T07:14:30;23.80;99.90
10468;DHT22;5281;48.878;9.394;2022-08-16T07:16:57;24.10;99.90
10468;DHT22;5281;48.878;9.394;2022-08-16T07:19:25;25.20;99.90
10468;DHT22;5281;48.878;9.394;2022-08-16T07:21:53;27.20;99.90
10468;DHT22;5281;48.878;9.394;2022-08-16T07:24:20;29.30;99.40
10468;DHT22;5281;48.878;9.394;2022-08-16T07:26:48;31.10;93.80
10468;DHT22;5281;48.878;9.394;2022-08-16T07:29:15;32.70;86.30
10468;DHT22;5281;48.878;9.394;2022-08-16T07:31:42;33.50;81.10
10468;DHT22;5281;48.878;9.394;2022-08-16T07:34:09;34.10;76.10
10468;DHT22;5281;48.878;9.394;2022-08-16T07:36:36;34.80;72.80
10468;DHT22;5281;48.878;9.394;2022-08-16T07:39:03;35.50;68.00
10468;DHT22;5281;48.878;9.394;2022-08-16T07:41:30;35.80;65.50
10468;DHT22;5281;48.878;9.394;2022-08-16T07:43:58;36.40;62.90
10468;DHT22;5281;48.878;9.394;2022-08-16T07:46:26;37.40;60.30
10468;DHT22;5281;48.878;9.394;2022-08-16T07:48:53;38.40;57.40
10468;DHT22;5281;48.878;9.394;2022-08-16T07:51:20;39.30;54.80
10468;DHT22;5281;48.878;9.394;2022-08-16T07:53:47;39.60;53.10
10468;DHT22;5281;48.878;9.394;2022-08-16T07:56:16;40.10;51.30
10468;DHT22;5281;48.878;9.394;2022-08-16T07:58:43;40.70;50.10
10468;DHT22;5281;48.878;9.394;2022-08-16T08:01:12;41.10;49.20
10468;DHT22;5281;48.878;9.394;2022-08-16T08:03:40;41.30;48.20
10468;DHT22;5281;48.878;9.394;2022-08-16T08:06:08;41.30;47.90
10468;DHT22;5281;48.878;9.394;2022-08-16T08:08:36;41.40;46.70
10468;DHT22;5281;48.878;9.394;2022-08-16T08:11:04;41.40;46.30
10468;DHT22;5281;48.878;9.394;2022-08-16T08:13:30;41.50;46.40
10468;DHT22;5281;48.878;9.394;2022-08-16T08:15:57;41.40;45.80
10468;DHT22;5281;48.878;9.394;2022-08-16T08:18:25;41.70;45.60
10468;DHT22;5281;48.878;9.394;2022-08-16T08:20:54;41.90;45.10
10468;DHT22;5281;48.878;9.394;2022-08-16T08:23:21;41.90;44.40
10468;DHT22;5281;48.878;9.394;2022-08-16T08:25:48;41.60;44.90
10468;DHT22;5281;48.878;9.394;2022-08-16T08:28:16;41.60;45.40
10468;DHT22;5281;48.878;9.394;2022-08-16T08:30:44;41.20;44.80
10468;DHT22;5281;48.878;9.394;2022-08-16T08:33:11;40.40;45.70
10468;DHT22;5281;48.878;9.394;2022-08-16T08:35:39;39.00;47.20
10468;DHT22;5281;48.878;9.394;2022-08-16T08:38:07;37.40;49.30
10468;DHT22;5281;48.878;9.394;2022-08-16T08:40:34;35.90;51.90
10468;DHT22;5281;48.878;9.394;2022-08-16T08:43:02;34.60;53.40
10468;DHT22;5281;48.878;9.394;2022-08-16T08:45:29;33.30;55.60
10468;DHT22;5281;48.878;9.394;2022-08-16T08:47:56;32.00;58.20
10468;DHT22;5281;48.878;9.394;2022-08-16T08:50:24;31.10;60.40
10468;DHT22;5281;48.878;9.394;2022-08-16T08:52:52;30.40;62.80
10468;DHT22;5281;48.878;9.394;2022-08-16T08:55:20;30.10;64.50
10468;DHT22;5281;48.878;9.394;2022-08-16T08:57:48;29.70;66.30
10468;DHT22;5281;48.878;9.394;2022-08-16T09:00:19;29.50;66.50
10468;DHT22;5281;48.878;9.394;2022-08-16T09:02:48;29.20;67.90
10468;DHT22;5281;48.878;9.394;2022-08-16T09:05:16;28.90;69.00
10468;DHT22;5281;48.878;9.394;2022-08-16T09:07:44;28.70;69.70
10468;DHT22;5281;48.878;9.394;2022-08-16T09:10:13;28.70;70.80
10468;DHT22;5281;48.878;9.394;2022-08-16T09:12:40;28.70;70.50
10468;DHT22;5281;48.878;9.394;2022-08-16T09:15:08;28.80;70.60
10468;DHT22;5281;48.878;9.394;2022-08-16T09:17:36;28.90;69.70
10468;DHT22;5281;48.878;9.394;2022-08-16T09:20:04;29.00;69.50
10468;DHT22;5281;48.878;9.394;2022-08-16T09:22:32;29.00;71.00
10468;DHT22;5281;48.878;9.394;2022-08-16T09:24:59;28.90;70.60
10468;DHT22;5281;48.878;9.394;2022-08-16T09:27:27;28.80;70.70
10468;DHT22;5281;48.878;9.394;2022-08-16T09:29:54;28.80;70.40
10468;DHT22;5281;48.878;9.394;2022-08-16T09:32:22;28.60;70.90
10468;DHT22;5281;48.878;9.394;2022-08-16T09:34:49;28.40;71.30
10468;DHT22;5281;48.878;9.394;2022-08-16T09:37:15;28.40;71.20
10468;DHT22;5281;48.878;9.394;2022-08-16T09:39:42;28.50;69.40
10468;DHT22;5281;48.878;9.394;2022-08-16T09:42:10;28.50;68.60
10468;DHT22;5281;48.878;9.394;2022-08-16T09:44:41;28.50;68.80
10468;DHT22;5281;48.878;9.394;2022-08-16T09:47:08;28.40;69.30
10468;DHT22;5281;48.878;9.394;2022-08-16T09:49:35;28.60;69.30
10468;DHT22;5281;48.878;9.394;2022-08-16T09:52:02;29.00;69.50
10468;DHT22;5281;48.878;9.394;2022-08-16T09:54:29;29.40;69.00
10468;DHT22;5281;48.878;9.394;2022-08-16T09:56:57;29.60;67.50
10468;DHT22;5281;48.878;9.394;2022-08-16T09:59:24;29.70;67.40
10468;DHT22;5281;48.878;9.394;2022-08-16T10:01:53;29.80;67.90
10468;DHT22;5281;48.878;9.394;2022-08-16T10:04:21;29.60;68.30
10468;DHT22;5281;48.878;9.394;2022-08-16T10:06:49;29.30;68.70
10468;DHT22;5281;48.878;9.394;2022-08-16T10:09:17;29.20;69.10
10468;DHT22;5281;48.878;9.394;2022-08-16T10:11:44;29.20;68.90
10468;DHT22;5281;48.878;9.394;2022-08-16T10:14:28;29.00;69.30
10468;DHT22;5281;48.878;9.394;2022-08-16T10:16:58;29.10;69.50
10468;DHT22;5281;48.878;9.394;2022-08-16T10:19:27;29.20;69.20
10468;DHT22;5281;48.878;9.394;2022-08-16T10:21:53;29.40;68.80
10468;DHT22;5281;48.878;9.394;2022-08-16T10:24:21;29.60;67.50
10468;DHT22;5281;48.878;9.394;2022-08-16T10:26:48;29.70;67.00
10468;DHT22;5281;48.878;9.394;2022-08-16T10:29:18;29.80;67.50
10468;DHT22;5281;48.878;9.394;2022-08-16T10:31:45;30.00;67.20
10468;DHT22;5281;48.878;9.394;2022-08-16T10:34:13;30.00;66.50
10468;DHT22;5281;48.878;9.394;2022-08-16T10:36:40;30.20;66.60
10468;DHT22;5281;48.878;9.394;2022-08-16T10:39:07;30.30;66.50
10468;DHT22;5281;48.878;9.394;2022-08-16T10:41:34;30.50;65.60
10468;DHT22;5281;48.878;9.394;2022-08-16T10:44:01;30.60;65.10
10468;DHT22;5281;48.878;9.394;2022-08-16T10:46:29;30.70;64.90
10468;DHT22;5281;48.878;9.394;2022-08-16T10:48:56;31.00;64.40
10468;DHT22;5281;48.878;9.394;2022-08-16T10:51:25;31.20;64.00
10468;DHT22;5281;48.878;9.394;2022-08-16T10:53:52;31.50;62.80
10468;DHT22;5281;48.878;9.394;2022-08-16T10:56:19;31.90;62.40
10468;DHT22;5281;48.878;9.394;2022-08-16T10:58:48;32.20;61.10
10468;DHT22;5281;48.878;9.394;2022-08-16T11:01:15;32.50;60.50
10468;DHT22;5281;48.878;9.394;2022-08-16T11:03:42;32.70;60.30
10468;DHT22;5281;48.878;9.394;2022-08-16T11:06:09;33.00;59.20
10468;DHT22;5281;48.878;9.394;2022-08-16T11:08:38;33.40;58.60
10468;DHT22;5281;48.878;9.394;2022-08-16T11:11:05;33.60;57.60
10468;DHT22;5281;48.878;9.394;2022-08-16T11:13:33;33.80;58.00
10468;DHT22;5281;48.878;9.394;2022-08-16T11:16:00;33.90;56.90
10468;DHT22;5281;48.878;9.394;2022-08-16T11:18:28;34.00;55.60
10468;DHT22;5281;48.878;9.394;2022-08-16T11:20:56;33.60;56.30
10468;DHT22;5281;48.878;9.394;2022-08-16T11:23:23;33.30;57.10
10468;DHT22;5281;48.878;9.394;2022-08-16T11:25:53;32.90;57.30
10468;DHT22;5281;48.878;9.394;2022-08-16T11:28:21;32.80;58.00
10468;DHT22;5281;48.878;9.394;2022-08-16T11:30:48;32.80;57.90
10468;DHT22;5281;48.878;9.394;2022-08-16T11:33:16;32.80;57.50
10468;DHT22;5281;48.878;9.394;2022-08-16T11:35:43;32.80;56.90
10468;DHT22;5281;48.878;9.394;2022-08-16T11:38:13;32.90;55.90
10468;DHT22;5281;48.878;9.394;2022-08-16T11:40:43;33.10;55.50
10468;DHT22;5281;48.878;9.394;2022-08-16T11:43:13;33.40;55.60
10468;DHT22;5281;48.878;9.394;2022-08-16T11:45:40;33.70;55.30
10468;DHT22;5281;48.878;9.394;2022-08-16T11:48:07;33.80;54.60
10468;DHT22;5281;48.878;9.394;2022-08-16T11:50:35;33.90;54.20
10468;DHT22;5281;48.878;9.394;2022-08-16T11:53:03;33.80;54.30
10468;DHT22;5281;48.878;9.394;2022-08-16T11:55:32;33.50;54.80
10468;DHT22;5281;48.878;9.394;2022-08-16T11:58:00;33.30;54.40
10468;DHT22;5281;48.878;9.394;2022-08-16T12:00:31;33.20;54.70
10468;DHT22;5281;48.878;9.394;2022-08-16T12:02:58;33.00;55.00
10468;DHT22;5281;48.878;9.394;2022-08-16T12:05:26;32.80;55.80
10468;DHT22;5281;48.878;9.394;2022-08-16T12:07:53;32.50;56.20
10468;DHT22;5281;48.878;9.394;2022-08-16T12:10:23;32.40;56.50
10468;DHT22;5281;48.878;9.394;2022-08-16T12:12:50;32.40;56.50
10468;DHT22;5281;48.878;9.394;2022-08-16T12:15:18;32.30;56.60
10468;DHT22;5281;48.878;9.394;2022-08-16T12:17:47;32.30;56.50
10468;DHT22;5281;48.878;9.394;2022-08-16T12:20:16;32.20;56.50
10468;DHT22;5281;48.878;9.394;2022-08-16T12:22:43;32.10;56.80
10468;DHT22;5281;48.878;9.394;2022-08-16T12:25:13;31.60;57.40
10468;DHT22;5281;48.878;9.394;2022-08-16T12:27:41;31.20;58.50
10468;DHT22;5281;48.878;9.394;2022-08-16T12:30:11;31.00;59.30
10468;DHT22;5281;48.878;9.394;2022-08-16T12:32:39;30.80;59.50
10468;DHT22;5281;48.878;9.394;2022-08-16T12:35:10;30.80;59.90
10468;DHT22;5281;48.878;9.394;2022-08-16T12:37:38;30.70;60.10
10468;DHT22;5281;48.878;9.394;2022-08-16T12:40:07;30.70;60.10
10468;DHT22;5281;48.878;9.394;2022-08-16T12:42:34;30.50;60.10
10468;DHT22;5281;48.878;9.394;2022-08-16T12:45:02;30.40;60.70
10468;DHT22;5281;48.878;9.394;2022-08-16T12:47:29;30.20;62.20
10468;DHT22;5281;48.878;9.394;2022-08-16T12:50:14;30.10;61.50
10468;DHT22;5281;48.878;9.394;2022-08-16T12:52:41;30.00;61.10
10468;DHT22;5281;48.878;9.394;2022-08-16T12:55:08;30.10;60.50
10468;DHT22;5281;48.878;9.394;2022-08-16T12:57:36;30.00;60.40
10468;DHT22;5281;48.878;9.394;2022-08-16T13:00:06;29.90;60.80
10468;DHT22;5281;48.878;9.394;2022-08-16T13:02:35;29.90;60.90
10468;DHT22;5281;48.878;9.394;2022-08-16T13:05:02;29.90;60.80
10468;DHT22;5281;48.878;9.394;2022-08-16T13:07:31;30.00;60.40
10468;DHT22;5281;48.878;9.394;2022-08-16T13:09:58;30.00;60.70
10468;DHT22;5281;48.878;9.394;2022-08-16T13:12:33;30.00;61.20
10468;DHT22;5281;48.878;9.394;2022-08-16T13:15:03;30.20;61.80
10468;DHT22;5281;48.878;9.394;2022-08-16T13:17:30;30.30;60.60
10468;DHT22;5281;48.878;9.394;2022-08-16T13:19:57;30.40;60.70
10468;DHT22;5281;48.878;9.394;2022-08-16T13:22:25;30.50;60.20
10468;DHT22;5281;48.878;9.394;2022-08-16T13:24:54;30.60;60.10
10468;DHT22;5281;48.878;9.394;2022-08-16T13:27:20;30.70;60.00
10468;DHT22;5281;48.878;9.394;2022-08-16T13:29:47;31.00;59.10
10468;DHT22;5281;48.878;9.394;2022-08-16T13:32:14;31.00;58.70
10468;DHT22;5281;48.878;9.394;2022-08-16T13:34:41;31.00;58.60
10468;DHT22;5281;48.878;9.394;2022-08-16T13:37:08;31.00;58.50
10468;DHT22;5281;48.878;9.394;2022-08-16T13:39:35;31.00;58.20
10468;DHT22;5281;48.878;9.394;2022-08-16T13:42:08;30.90;58.30
10468;DHT22;5281;48.878;9.394;2022-08-16T13:44:35;30.80;58.60
10468;DHT22;5281;48.878;9.394;2022-08-16T13:47:03;30.70;58.70
10468;DHT22;5281;48.878;9.394;2022-08-16T13:49:30;30.60;58.90
10468;DHT22;5281;48.878;9.394;2022-08-16T13:51:57;30.50;59.20
10468;DHT22;5281;48.878;9.394;2022-08-16T13:54:23;30.60;59.10
10468;DHT22;5281;48.878;9.394;2022-08-16T13:56:50;30.70;58.20
10468;DHT22;5281;48.878;9.394;2022-08-16T13:59:18;30.70;57.80
10468;DHT22;5281;48.878;9.394;2022-08-16T14:01:47;30.60;58.30
10468;DHT22;5281;48.878;9.394;2022-08-16T14:04:14;30.50;58.00
10468;DHT22;5281;48.878;9.394;2022-08-16T14:06:42;30.30;58.60
10468;DHT22;5281;48.878;9.394;2022-08-16T14:09:09;30.20;58.90
10468;DHT22;5281;48.878;9.394;2022-08-16T14:11:36;30.30;58.80
10468;DHT22;5281;48.878;9.394;2022-08-16T14:14:03;30.60;58.60
10468;DHT22;5281;48.878;9.394;2022-08-16T14:16:32;30.70;58.20
10468;DHT22;5281;48.878;9.394;2022-08-16T14:18:59;31.00;58.00
10468;DHT22;5281;48.878;9.394;2022-08-16T14:21:26;31.20;57.30
10468;DHT22;5281;48.878;9.394;2022-08-16T14:23:53;31.30;57.20
10468;DHT22;5281;48.878;9.394;2022-08-16T14:26:19;31.40;56.50
10468;DHT22;5281;48.878;9.394;2022-08-16T14:28:47;31.40;56.80
10468;DHT22;5281;48.878;9.394;2022-08-16T14:31:15;31.50;56.80
10468;DHT22;5281;48.878;9.394;2022-08-16T14:33:43;31.50;56.70
10468;DHT22;5281;48.878;9.394;2022-08-16T14:36:10;31.80;56.30
10468;DHT22;5281;48.878;9.394;2022-08-16T14:38:37;31.80;56.20
10468;DHT22;5281;48.878;9.394;2022-08-16T14:41:04;31.90;55.60
10468;DHT22;5281;48.878;9.394;2022-08-16T14:43:31;32.00;55.30
10468;DHT22;5281;48.878;9.394;2022-08-16T14:45:58;32.10;55.10
10468;DHT22;5281;48.878;9.394;2022-08-16T14:48:25;32.10;54.70
10468;DHT22;5281;48.878;9.394;2022-08-16T14:50:53;31.90;55.00
10468;DHT22;5281;48.878;9.394;2022-08-16T14:53:21;31.80;55.30
10468;DHT22;5281;48.878;9.394;2022-08-16T14:55:48;31.70;55.20
10468;DHT22;5281;48.878;9.394;2022-08-16T14:58:15;31.90;55.40
10468;DHT22;5281;48.878;9.394;2022-08-16T15:00:46;32.00;55.80
10468;DHT22;5281;48.878;9.394;2022-08-16T15:03:13;32.00;54.80
10468;DHT22;5281;48.878;9.394;2022-08-16T15:05:40;31.90;55.00
10468;DHT22;5281;48.878;9.394;2022-08-16T15:08:09;31.80;55.20
10468;DHT22;5281;48.878;9.394;2022-08-16T15:10:36;31.90;55.30
10468;DHT22;5281;48.878;9.394;2022-08-16T15:13:05;32.00;55.10
10468;DHT22;5281;48.878;9.394;2022-08-16T15:15:32;32.20;54.80
10468;DHT22;5281;48.878;9.394;2022-08-16T15:17:59;32.40;54.30
10468;DHT22;5281;48.878;9.394;2022-08-16T15:20:28;32.40;54.00
10468;DHT22;5281;48.878;9.394;2022-08-16T15:22:56;32.30;54.20
10468;DHT22;5281;48.878;9.394;2022-08-16T15:25:27;32.20;54.50
10468;DHT22;5281;48.878;9.394;2022-08-16T15:27:54;32.10;54.80
10468;DHT22;5281;48.878;9.394;2022-08-16T15:30:24;31.90;54.60
10468;DHT22;5281;48.878;9.394;2022-08-16T15:32:56;31.70;54.90
10468;DHT22;5281;48.878;9.394;2022-08-16T15:35:25;31.40;55.70
10468;DHT22;5281;48.878;9.394;2022-08-16T15:37:52;31.20;56.00
10468;DHT22;5281;48.878;9.394;2022-08-16T15:40:19;31.00;56.10
10468;DHT22;5281;48.878;9.394;2022-08-16T15:42:50;30.90;56.50
10468;DHT22;5281;48.878;9.394;2022-08-16T15:45:20;30.90;56.40
10468;DHT22;5281;48.878;9.394;2022-08-16T15:48:01;30.80;56.70